EDLWEDDR

Guest
Details From EDLW - Dortmund-Wickede
To EDDR - Saarbrucken
Flight Number -
Tags generated
Created
Modified
Stats Distance 140 nm / 259 km
Max Altitude 12,500 ft / 3,810 m
Waypoints 3
Social Downloads 0
Likes 0
Share VATSIM

Download

Looking for another format? Having issues loading an existing format? Contact us
Advertisement - Login to hide

Notes

Basic altitude profile: - Ascent Rate: 2500ft/min - Ascent Speed: 250kts - Cruise Altitude: 35000ft - Cruise Speed: 420kts - Descent Rate: 1500ft/min - Descent Speed: 250kts Options: - Use NATs: yes - Use PACOTS: yes - Use low airways: yes - Use high airways: yes

Route

EDLW OSMAX EDDR

ID Type Via Altitude (ft/m) Position (lat/lon) Dist (leg/tot) Name
O EDLW APT - 0 / 0 51.51911 / 7.61445 - / 0 nm Dortmund-Wickede
OSMAX FIX - 12,500 / 3,810 50.26056 / 7.32333 76 / 76 nm
O EDDR APT - 0 / 0 49.21534 / 7.11261 63 / 139 nm Saarbrucken

Altitude Profile

Advertisement - Login to hide

EDLW

Details ICAO EDLW (DTM)
Name Dortmund-Wickede
Region Germany - Civil
Timezone Europe/Berlin (UTC+1.0)
Stats Elevation 422 ft / 129 m (AMSL)
Location 51.519100° 7.614450°
Runways 1
Magnetic Variation 2.196° E

METAR

EDLW 190220Z AUTO 18015G25KT 9999 // FEW140/// 07/M01 Q1010

Decode

TAF

TAF EDLW 182150Z 1821/1918 CNL

Decode

Departure Runways

ID Width Length Bearing (true/mag) Surface Threshold Overrun Markings Lighting
06 148 ft / 45 m 6,546 ft / 1,995 m 60.50° / 58.31° ASPHALT 984 ft / 300 m 197 ft / 60 m PREC-APP EDGE THRESHOLD RAIL TDZ REIL-OMNI
24 148 ft / 45 m 6,546 ft / 1,995 m 240.52° / 238.33° ASPHALT 984 ft / 300 m 197 ft / 60 m PREC-APP EDGE THRESHOLD RAIL TDZ REIL-OMNI

EDDR

Details ICAO EDDR (SCN)
Name Saarbrucken
Region Germany - Civil
Timezone Europe/Berlin (UTC+1.0)
Stats Elevation 1,057 ft / 322 m (AMSL)
Location 49.214600° 7.109510°
Runways 1
Magnetic Variation 2.084° E

METAR

EDDR 190220Z 20007KT 160V220 CAVOK 05/00 Q1015

Decode

TAF

TAF EDDR 182300Z 1900/1924 10006KT CAVOK BECMG 1900/1903 20008KT TEMPO 1906/1912 4500 -RADZ BKN008 TEMPO 1912/1920 3500 -DZ BKN006 TEMPO 1920/1924 4000 SHRADZ BKN008TCU

Decode

Destination Runways

ID Width Length Bearing (true/mag) Surface Threshold Overrun Markings Lighting
09 148 ft / 45 m 6,568 ft / 2,002 m 87.44° / 85.35° ASPHALT 197 ft / 60 m 308 ft / 94 m PREC-APP CENTERLINE EDGE THRESHOLD MALSF
27 148 ft / 45 m 6,568 ft / 2,002 m 267.46° / 265.37° ASPHALT 331 ft / 101 m 0 ft / 0 m PREC-APP CENTERLINE EDGE THRESHOLD MALSF

Approach Navaids

Runway Type Ident Frequency Range Bearing (true/mag) Slope Elevation
27 LOC-ILS DSB 108.70 MHz 25 nm / 46 km 267.45° / 265.37 ° - 1,057 ft / 322 m (AMSL)
27 MM MM - - 267.39° / 265.31 ° - 1,057 ft / 322 m (AMSL)
27 GS DSB 108.70 MHz 10 nm / 19 km 267.79° / 265.70 ° 3.00° 1,057 ft / 322 m (AMSL)
27 OM OM - - 267.39° / 265.31 ° - 1,057 ft / 322 m (AMSL)

Popular Alternatives